sensor_id;sensor_type;location;lat;lon;timestamp;P1;durP1;ratioP1;P2;durP2;ratioP2
20348;SDS011;10332;50.208;18.988;2024-03-23T00:55:19;24.83;;;16.10;;
20348;SDS011;10332;50.208;18.988;2024-03-23T00:57:46;23.05;;;15.40;;
20348;SDS011;10332;50.208;18.988;2024-03-23T01:00:12;28.13;;;16.98;;
20348;SDS011;10332;50.208;18.988;2024-03-23T01:02:39;23.98;;;15.75;;
20348;SDS011;10332;50.208;18.988;2024-03-23T01:05:05;25.65;;;15.75;;
20348;SDS011;10332;50.208;18.988;2024-03-23T01:07:32;25.15;;;16.38;;
20348;SDS011;10332;50.208;18.988;2024-03-23T01:09:58;25.80;;;16.08;;
20348;SDS011;10332;50.208;18.988;2024-03-23T01:12:24;27.05;;;16.13;;
20348;SDS011;10332;50.208;18.988;2024-03-23T01:14:50;25.73;;;15.82;;
20348;SDS011;10332;50.208;18.988;2024-03-23T01:17:17;24.52;;;15.35;;
20348;SDS011;10332;50.208;18.988;2024-03-23T01:19:43;25.63;;;15.80;;
20348;SDS011;10332;50.208;18.988;2024-03-23T01:22:09;26.92;;;16.77;;
20348;SDS011;10332;50.208;18.988;2024-03-23T01:24:36;30.52;;;17.55;;
20348;SDS011;10332;50.208;18.988;2024-03-23T01:27:02;26.35;;;15.88;;
20348;SDS011;10332;50.208;18.988;2024-03-23T01:29:29;23.08;;;14.25;;
20348;SDS011;10332;50.208;18.988;2024-03-23T01:31:55;21.48;;;13.88;;
20348;SDS011;10332;50.208;18.988;2024-03-23T01:34:22;26.27;;;16.73;;
20348;SDS011;10332;50.208;18.988;2024-03-23T01:36:48;28.25;;;17.15;;
20348;SDS011;10332;50.208;18.988;2024-03-23T01:39:14;25.02;;;16.38;;
20348;SDS011;10332;50.208;18.988;2024-03-23T01:41:41;26.95;;;16.90;;
20348;SDS011;10332;50.208;18.988;2024-03-23T01:44:08;29.95;;;17.77;;
20348;SDS011;10332;50.208;18.988;2024-03-23T01:46:35;28.45;;;18.00;;
20348;SDS011;10332;50.208;18.988;2024-03-23T01:49:05;23.98;;;15.38;;
20348;SDS011;10332;50.208;18.988;2024-03-23T01:51:33;22.63;;;13.70;;
20348;SDS011;10332;50.208;18.988;2024-03-23T01:54:03;26.92;;;15.55;;
20348;SDS011;10332;50.208;18.988;2024-03-23T01:56:32;23.05;;;14.48;;
20348;SDS011;10332;50.208;18.988;2024-03-23T01:59:03;23.00;;;15.10;;
20348;SDS011;10332;50.208;18.988;2024-03-23T02:01:33;24.27;;;16.33;;
20348;SDS011;10332;50.208;18.988;2024-03-23T02:04:03;29.60;;;18.27;;
20348;SDS011;10332;50.208;18.988;2024-03-23T02:06:30;32.15;;;19.58;;
20348;SDS011;10332;50.208;18.988;2024-03-23T02:08:56;30.05;;;18.45;;
20348;SDS011;10332;50.208;18.988;2024-03-23T02:11:26;39.10;;;21.13;;
20348;SDS011;10332;50.208;18.988;2024-03-23T02:13:53;32.38;;;20.30;;
20348;SDS011;10332;50.208;18.988;2024-03-23T02:16:19;30.77;;;19.10;;
20348;SDS011;10332;50.208;18.988;2024-03-23T02:18:45;33.40;;;19.85;;
20348;SDS011;10332;50.208;18.988;2024-03-23T02:21:12;32.13;;;19.92;;
20348;SDS011;10332;50.208;18.988;2024-03-23T02:23:38;32.75;;;18.92;;
20348;SDS011;10332;50.208;18.988;2024-03-23T02:26:04;39.60;;;21.27;;
20348;SDS011;10332;50.208;18.988;2024-03-23T02:28:30;37.45;;;21.55;;
20348;SDS011;10332;50.208;18.988;2024-03-23T02:30:57;34.58;;;20.70;;
20348;SDS011;10332;50.208;18.988;2024-03-23T02:33:24;35.88;;;19.65;;
20348;SDS011;10332;50.208;18.988;2024-03-23T02:35:50;30.67;;;19.20;;
20348;SDS011;10332;50.208;18.988;2024-03-23T02:38:21;32.05;;;18.85;;
20348;SDS011;10332;50.208;18.988;2024-03-23T02:40:47;29.58;;;18.00;;
20348;SDS011;10332;50.208;18.988;2024-03-23T02:43:13;30.65;;;17.95;;
20348;SDS011;10332;50.208;18.988;2024-03-23T02:45:40;29.58;;;17.52;;
20348;SDS011;10332;50.208;18.988;2024-03-23T02:48:06;28.20;;;17.02;;
20348;SDS011;10332;50.208;18.988;2024-03-23T02:50:32;27.88;;;17.10;;
20348;SDS011;10332;50.208;18.988;2024-03-23T02:52:59;30.65;;;18.13;;
20348;SDS011;10332;50.208;18.988;2024-03-23T02:55:25;29.38;;;18.15;;
20348;SDS011;10332;50.208;18.988;2024-03-23T02:57:51;29.60;;;17.00;;
20348;SDS011;10332;50.208;18.988;2024-03-23T03:00:18;29.73;;;17.27;;
20348;SDS011;10332;50.208;18.988;2024-03-23T03:02:44;31.75;;;18.63;;
20348;SDS011;10332;50.208;18.988;2024-03-23T03:05:10;30.38;;;19.15;;
20348;SDS011;10332;50.208;18.988;2024-03-23T03:07:38;32.85;;;18.65;;
20348;SDS011;10332;50.208;18.988;2024-03-23T03:10:06;27.60;;;17.52;;
20348;SDS011;10332;50.208;18.988;2024-03-23T03:12:35;27.25;;;16.85;;
20348;SDS011;10332;50.208;18.988;2024-03-23T03:15:06;28.02;;;16.90;;
20348;SDS011;10332;50.208;18.988;2024-03-23T03:17:33;31.63;;;17.58;;
20348;SDS011;10332;50.208;18.988;2024-03-23T03:20:00;29.23;;;17.55;;
20348;SDS011;10332;50.208;18.988;2024-03-23T03:22:29;32.33;;;17.15;;
20348;SDS011;10332;50.208;18.988;2024-03-23T03:24:56;32.67;;;18.33;;
20348;SDS011;10332;50.208;18.988;2024-03-23T03:27:22;26.77;;;16.27;;
20348;SDS011;10332;50.208;18.988;2024-03-23T03:29:49;30.17;;;18.15;;
20348;SDS011;10332;50.208;18.988;2024-03-23T03:32:15;30.70;;;16.95;;
20348;SDS011;10332;50.208;18.988;2024-03-23T03:34:42;29.92;;;16.95;;
20348;SDS011;10332;50.208;18.988;2024-03-23T03:37:08;33.22;;;18.90;;
20348;SDS011;10332;50.208;18.988;2024-03-23T03:39:34;31.70;;;19.42;;
20348;SDS011;10332;50.208;18.988;2024-03-23T03:42:00;28.20;;;17.83;;
20348;SDS011;10332;50.208;18.988;2024-03-23T03:44:29;28.50;;;17.60;;
20348;SDS011;10332;50.208;18.988;2024-03-23T03:46:55;24.55;;;16.45;;
20348;SDS011;10332;50.208;18.988;2024-03-23T03:49:22;25.15;;;16.45;;
20348;SDS011;10332;50.208;18.988;2024-03-23T03:51:48;28.08;;;17.55;;
20348;SDS011;10332;50.208;18.988;2024-03-23T03:54:14;25.10;;;15.35;;
20348;SDS011;10332;50.208;18.988;2024-03-23T03:56:40;26.20;;;16.77;;
20348;SDS011;10332;50.208;18.988;2024-03-23T03:59:07;28.67;;;18.35;;
20348;SDS011;10332;50.208;18.988;2024-03-23T04:01:33;26.08;;;17.30;;
20348;SDS011;10332;50.208;18.988;2024-03-23T04:03:59;29.38;;;17.98;;
20348;SDS011;10332;50.208;18.988;2024-03-23T04:06:25;29.70;;;17.17;;
20348;SDS011;10332;50.208;18.988;2024-03-23T04:08:52;29.15;;;18.33;;
20348;SDS011;10332;50.208;18.988;2024-03-23T04:11:18;28.60;;;17.88;;
20348;SDS011;10332;50.208;18.988;2024-03-23T04:13:44;26.58;;;17.10;;
20348;SDS011;10332;50.208;18.988;2024-03-23T04:16:10;24.40;;;15.57;;
20348;SDS011;10332;50.208;18.988;2024-03-23T04:18:37;26.15;;;16.17;;
20348;SDS011;10332;50.208;18.988;2024-03-23T04:21:03;25.83;;;16.05;;
20348;SDS011;10332;50.208;18.988;2024-03-23T04:23:30;24.60;;;16.10;;
20348;SDS011;10332;50.208;18.988;2024-03-23T04:25:57;28.83;;;17.77;;
20348;SDS011;10332;50.208;18.988;2024-03-23T04:28:32;25.45;;;15.63;;
20348;SDS011;10332;50.208;18.988;2024-03-23T04:30:58;25.73;;;16.75;;
20348;SDS011;10332;50.208;18.988;2024-03-23T04:33:29;28.67;;;16.42;;
20348;SDS011;10332;50.208;18.988;2024-03-23T04:35:55;25.75;;;15.48;;
20348;SDS011;10332;50.208;18.988;2024-03-23T04:38:21;26.77;;;17.15;;
20348;SDS011;10332;50.208;18.988;2024-03-23T04:40:57;27.48;;;15.77;;
20348;SDS011;10332;50.208;18.988;2024-03-23T04:43:25;29.90;;;17.60;;
20348;SDS011;10332;50.208;18.988;2024-03-23T04:45:52;24.73;;;16.50;;
20348;SDS011;10332;50.208;18.988;2024-03-23T04:48:22;28.48;;;16.23;;
20348;SDS011;10332;50.208;18.988;2024-03-23T04:50:49;24.55;;;15.27;;
20348;SDS011;10332;50.208;18.988;2024-03-23T04:53:20;26.23;;;15.85;;
20348;SDS011;10332;50.208;18.988;2024-03-23T04:55:46;25.33;;;15.32;;
20348;SDS011;10332;50.208;18.988;2024-03-23T04:58:12;28.55;;;15.30;;
20348;SDS011;10332;50.208;18.988;2024-03-23T05:00:38;24.85;;;14.88;;
20348;SDS011;10332;50.208;18.988;2024-03-23T05:03:08;25.17;;;16.00;;
20348;SDS011;10332;50.208;18.988;2024-03-23T05:05:34;24.63;;;15.68;;
20348;SDS011;10332;50.208;18.988;2024-03-23T05:08:01;23.10;;;14.23;;
20348;SDS011;10332;50.208;18.988;2024-03-23T05:10:27;24.60;;;14.48;;
20348;SDS011;10332;50.208;18.988;2024-03-23T05:12:54;26.08;;;16.00;;
20348;SDS011;10332;50.208;18.988;2024-03-23T05:15:20;27.35;;;15.38;;
20348;SDS011;10332;50.208;18.988;2024-03-23T05:17:46;25.27;;;15.70;;
20348;SDS011;10332;50.208;18.988;2024-03-23T05:20:12;25.70;;;15.68;;
20348;SDS011;10332;50.208;18.988;2024-03-23T05:22:39;22.45;;;14.57;;
20348;SDS011;10332;50.208;18.988;2024-03-23T05:25:06;20.17;;;13.38;;
20348;SDS011;10332;50.208;18.988;2024-03-23T05:27:33;24.80;;;15.10;;
20348;SDS011;10332;50.208;18.988;2024-03-23T05:29:59;22.48;;;14.93;;
20348;SDS011;10332;50.208;18.988;2024-03-23T05:32:25;24.73;;;14.52;;
20348;SDS011;10332;50.208;18.988;2024-03-23T05:34:51;22.38;;;13.77;;
20348;SDS011;10332;50.208;18.988;2024-03-23T05:37:22;22.85;;;14.52;;
20348;SDS011;10332;50.208;18.988;2024-03-23T05:39:48;22.33;;;13.77;;
20348;SDS011;10332;50.208;18.988;2024-03-23T05:42:18;21.95;;;14.05;;
20348;SDS011;10332;50.208;18.988;2024-03-23T05:44:44;24.92;;;14.75;;
20348;SDS011;10332;50.208;18.988;2024-03-23T05:47:11;24.52;;;14.85;;
20348;SDS011;10332;50.208;18.988;2024-03-23T05:49:42;26.17;;;14.98;;
20348;SDS011;10332;50.208;18.988;2024-03-23T05:52:09;23.45;;;14.80;;
20348;SDS011;10332;50.208;18.988;2024-03-23T05:54:35;24.77;;;14.82;;
20348;SDS011;10332;50.208;18.988;2024-03-23T05:57:02;21.10;;;13.60;;
20348;SDS011;10332;50.208;18.988;2024-03-23T05:59:28;22.20;;;14.80;;
20348;SDS011;10332;50.208;18.988;2024-03-23T06:01:55;24.05;;;15.10;;
20348;SDS011;10332;50.208;18.988;2024-03-23T06:04:21;26.95;;;16.95;;
20348;SDS011;10332;50.208;18.988;2024-03-23T06:06:48;22.52;;;14.43;;
20348;SDS011;10332;50.208;18.988;2024-03-23T06:09:14;21.90;;;13.32;;
20348;SDS011;10332;50.208;18.988;2024-03-23T06:11:41;22.90;;;13.55;;
20348;SDS011;10332;50.208;18.988;2024-03-23T06:14:07;22.10;;;13.68;;
20348;SDS011;10332;50.208;18.988;2024-03-23T06:16:34;25.77;;;14.15;;
20348;SDS011;10332;50.208;18.988;2024-03-23T06:19:00;23.77;;;15.18;;
20348;SDS011;10332;50.208;18.988;2024-03-23T06:21:29;24.48;;;15.27;;
20348;SDS011;10332;50.208;18.988;2024-03-23T06:23:55;24.60;;;15.45;;
20348;SDS011;10332;50.208;18.988;2024-03-23T06:26:22;23.80;;;15.23;;
20348;SDS011;10332;50.208;18.988;2024-03-23T06:28:48;22.10;;;13.15;;
20348;SDS011;10332;50.208;18.988;2024-03-23T06:31:15;22.05;;;14.55;;
20348;SDS011;10332;50.208;18.988;2024-03-23T06:33:41;21.73;;;14.18;;
20348;SDS011;10332;50.208;18.988;2024-03-23T06:36:11;21.95;;;14.38;;
20348;SDS011;10332;50.208;18.988;2024-03-23T06:38:37;27.92;;;15.43;;
20348;SDS011;10332;50.208;18.988;2024-03-23T06:41:04;23.38;;;15.25;;
20348;SDS011;10332;50.208;18.988;2024-03-23T06:43:31;21.83;;;15.00;;
20348;SDS011;10332;50.208;18.988;2024-03-23T06:45:57;24.60;;;15.07;;
20348;SDS011;10332;50.208;18.988;2024-03-23T06:48:23;22.52;;;13.95;;
20348;SDS011;10332;50.208;18.988;2024-03-23T06:50:54;22.67;;;14.63;;
20348;SDS011;10332;50.208;18.988;2024-03-23T06:53:22;22.10;;;15.25;;
20348;SDS011;10332;50.208;18.988;2024-03-23T06:55:55;22.20;;;13.60;;
20348;SDS011;10332;50.208;18.988;2024-03-23T06:58:22;19.08;;;12.80;;
20348;SDS011;10332;50.208;18.988;2024-03-23T07:00:49;18.33;;;12.25;;
20348;SDS011;10332;50.208;18.988;2024-03-23T07:03:19;20.55;;;13.93;;
20348;SDS011;10332;50.208;18.988;2024-03-23T07:05:47;21.45;;;13.90;;
20348;SDS011;10332;50.208;18.988;2024-03-23T07:08:13;22.35;;;14.00;;
20348;SDS011;10332;50.208;18.988;2024-03-23T07:10:44;21.00;;;13.30;;
20348;SDS011;10332;50.208;18.988;2024-03-23T07:13:10;21.45;;;14.55;;
20348;SDS011;10332;50.208;18.988;2024-03-23T07:15:37;15.65;;;11.27;;
20348;SDS011;10332;50.208;18.988;2024-03-23T07:18:03;19.25;;;13.07;;
20348;SDS011;10332;50.208;18.988;2024-03-23T07:20:30;18.73;;;12.23;;
20348;SDS011;10332;50.208;18.988;2024-03-23T07:22:56;19.52;;;12.43;;
20348;SDS011;10332;50.208;18.988;2024-03-23T07:25:23;19.45;;;12.43;;
20348;SDS011;10332;50.208;18.988;2024-03-23T07:27:50;17.90;;;11.95;;
20348;SDS011;10332;50.208;18.988;2024-03-23T07:30:18;18.15;;;11.70;;
20348;SDS011;10332;50.208;18.988;2024-03-23T07:32:44;19.83;;;12.68;;
20348;SDS011;10332;50.208;18.988;2024-03-23T07:35:11;20.08;;;12.55;;
20348;SDS011;10332;50.208;18.988;2024-03-23T07:37:40;19.05;;;12.85;;
20348;SDS011;10332;50.208;18.988;2024-03-23T07:40:08;18.30;;;12.85;;
20348;SDS011;10332;50.208;18.988;2024-03-23T07:42:35;20.83;;;12.88;;
20348;SDS011;10332;50.208;18.988;2024-03-23T07:45:01;17.65;;;12.48;;
20348;SDS011;10332;50.208;18.988;2024-03-23T07:47:27;20.05;;;12.95;;
20348;SDS011;10332;50.208;18.988;2024-03-23T07:49:54;20.60;;;13.40;;
20348;SDS011;10332;50.208;18.988;2024-03-23T07:52:20;22.23;;;13.65;;
20348;SDS011;10332;50.208;18.988;2024-03-23T07:54:47;18.65;;;12.55;;
20348;SDS011;10332;50.208;18.988;2024-03-23T07:57:13;17.08;;;12.15;;
20348;SDS011;10332;50.208;18.988;2024-03-23T07:59:39;16.80;;;10.98;;
20348;SDS011;10332;50.208;18.988;2024-03-23T08:02:05;17.00;;;11.73;;
20348;SDS011;10332;50.208;18.988;2024-03-23T08:04:32;13.70;;;10.18;;
20348;SDS011;10332;50.208;18.988;2024-03-23T08:06:58;20.25;;;10.57;;
20348;SDS011;10332;50.208;18.988;2024-03-23T08:09:25;12.90;;;9.63;;
20348;SDS011;10332;50.208;18.988;2024-03-23T08:11:51;15.73;;;9.82;;
20348;SDS011;10332;50.208;18.988;2024-03-23T08:14:17;12.65;;;9.10;;
20348;SDS011;10332;50.208;18.988;2024-03-23T08:16:45;12.27;;;8.80;;
20348;SDS011;10332;50.208;18.988;2024-03-23T08:19:14;13.52;;;8.48;;
20348;SDS011;10332;50.208;18.988;2024-03-23T08:21:41;11.52;;;8.43;;
20348;SDS011;10332;50.208;18.988;2024-03-23T08:24:07;10.20;;;7.72;;
20348;SDS011;10332;50.208;18.988;2024-03-23T08:26:33;9.63;;;7.53;;
20348;SDS011;10332;50.208;18.988;2024-03-23T08:29:00;9.80;;;7.47;;
20348;SDS011;10332;50.208;18.988;2024-03-23T08:31:26;10.18;;;7.90;;
20348;SDS011;10332;50.208;18.988;2024-03-23T08:33:52;9.70;;;7.80;;
20348;SDS011;10332;50.208;18.988;2024-03-23T08:36:19;12.00;;;8.63;;
20348;SDS011;10332;50.208;18.988;2024-03-23T08:38:46;9.40;;;7.40;;
20348;SDS011;10332;50.208;18.988;2024-03-23T08:41:13;12.30;;;7.65;;
20348;SDS011;10332;50.208;18.988;2024-03-23T08:43:40;10.90;;;7.60;;
20348;SDS011;10332;50.208;18.988;2024-03-23T08:46:08;10.98;;;7.78;;
20348;SDS011;10332;50.208;18.988;2024-03-23T08:48:40;12.48;;;7.43;;
20348;SDS011;10332;50.208;18.988;2024-03-23T08:51:09;9.68;;;6.95;;
20348;SDS011;10332;50.208;18.988;2024-03-23T08:53:37;10.52;;;8.10;;
20348;SDS011;10332;50.208;18.988;2024-03-23T08:56:04;10.00;;;6.45;;
20348;SDS011;10332;50.208;18.988;2024-03-23T08:58:32;10.50;;;7.07;;
20348;SDS011;10332;50.208;18.988;2024-03-23T09:01:06;10.02;;;6.53;;
20348;SDS011;10332;50.208;18.988;2024-03-23T09:03:37;11.52;;;6.70;;
20348;SDS011;10332;50.208;18.988;2024-03-23T09:06:07;10.40;;;6.65;;
20348;SDS011;10332;50.208;18.988;2024-03-23T09:08:34;8.75;;;6.38;;
20348;SDS011;10332;50.208;18.988;2024-03-23T09:11:05;8.98;;;6.70;;
20348;SDS011;10332;50.208;18.988;2024-03-23T09:13:38;10.25;;;7.10;;
20348;SDS011;10332;50.208;18.988;2024-03-23T09:16:05;9.25;;;6.25;;
20348;SDS011;10332;50.208;18.988;2024-03-23T09:18:33;9.30;;;6.18;;
20348;SDS011;10332;50.208;18.988;2024-03-23T09:21:03;9.15;;;6.40;;
20348;SDS011;10332;50.208;18.988;2024-03-23T09:23:30;8.23;;;5.82;;
20348;SDS011;10332;50.208;18.988;2024-03-23T09:25:56;7.70;;;5.53;;
20348;SDS011;10332;50.208;18.988;2024-03-23T09:28:23;8.90;;;5.88;;
20348;SDS011;10332;50.208;18.988;2024-03-23T09:30:49;7.63;;;5.80;;
20348;SDS011;10332;50.208;18.988;2024-03-23T09:33:15;8.20;;;5.97;;
20348;SDS011;10332;50.208;18.988;2024-03-23T09:35:42;7.35;;;5.95;;
20348;SDS011;10332;50.208;18.988;2024-03-23T09:38:10;7.10;;;6.10;;
20348;SDS011;10332;50.208;18.988;2024-03-23T09:40:40;8.38;;;5.88;;
20348;SDS011;10332;50.208;18.988;2024-03-23T09:43:10;8.48;;;6.25;;
20348;SDS011;10332;50.208;18.988;2024-03-23T09:45:38;10.40;;;6.65;;
20348;SDS011;10332;50.208;18.988;2024-03-23T09:48:09;8.38;;;6.45;;
20348;SDS011;10332;50.208;18.988;2024-03-23T09:50:39;8.15;;;5.57;;
20348;SDS011;10332;50.208;18.988;2024-03-23T09:53:06;7.53;;;5.50;;
20348;SDS011;10332;50.208;18.988;2024-03-23T09:55:33;5.65;;;4.95;;
20348;SDS011;10332;50.208;18.988;2024-03-23T09:58:04;6.47;;;5.15;;
20348;SDS011;10332;50.208;18.988;2024-03-23T10:00:34;7.68;;;5.90;;
20348;SDS011;10332;50.208;18.988;2024-03-23T10:03:01;6.90;;;5.55;;
20348;SDS011;10332;50.208;18.988;2024-03-23T10:05:28;7.43;;;6.70;;
20348;SDS011;10332;50.208;18.988;2024-03-23T10:07:57;7.82;;;6.25;;
20348;SDS011;10332;50.208;18.988;2024-03-23T10:10:26;5.30;;;4.80;;
20348;SDS011;10332;50.208;18.988;2024-03-23T10:12:53;5.97;;;5.13;;
20348;SDS011;10332;50.208;18.988;2024-03-23T10:15:20;5.32;;;4.70;;
20348;SDS011;10332;50.208;18.988;2024-03-23T10:17:46;6.28;;;5.68;;
20348;SDS011;10332;50.208;18.988;2024-03-23T10:20:13;6.18;;;4.60;;
20348;SDS011;10332;50.208;18.988;2024-03-23T10:22:46;7.85;;;5.00;;
20348;SDS011;10332;50.208;18.988;2024-03-23T10:25:12;5.97;;;5.38;;
20348;SDS011;10332;50.208;18.988;2024-03-23T10:27:39;4.55;;;4.15;;
20348;SDS011;10332;50.208;18.988;2024-03-23T10:30:09;5.35;;;4.00;;
20348;SDS011;10332;50.208;18.988;2024-03-23T10:32:38;5.72;;;4.88;;
20348;SDS011;10332;50.208;18.988;2024-03-23T10:35:14;6.70;;;4.97;;
20348;SDS011;10332;50.208;18.988;2024-03-23T10:37:42;4.90;;;4.40;;
20348;SDS011;10332;50.208;18.988;2024-03-23T10:40:09;5.10;;;4.32;;
20348;SDS011;10332;50.208;18.988;2024-03-23T10:42:38;5.18;;;4.68;;
20348;SDS011;10332;50.208;18.988;2024-03-23T10:45:05;5.60;;;4.50;;
20348;SDS011;10332;50.208;18.988;2024-03-23T10:47:36;5.07;;;4.57;;
20348;SDS011;10332;50.208;18.988;2024-03-23T10:50:03;5.75;;;4.40;;
20348;SDS011;10332;50.208;18.988;2024-03-23T10:52:32;4.60;;;4.20;;
20348;SDS011;10332;50.208;18.988;2024-03-23T10:54:59;4.63;;;4.20;;
20348;SDS011;10332;50.208;18.988;2024-03-23T10:57:34;5.28;;;4.60;;
20348;SDS011;10332;50.208;18.988;2024-03-23T11:00:05;4.13;;;3.72;;
20348;SDS011;10332;50.208;18.988;2024-03-23T11:02:32;5.72;;;4.03;;
20348;SDS011;10332;50.208;18.988;2024-03-23T11:04:58;4.30;;;3.90;;
20348;SDS011;10332;50.208;18.988;2024-03-23T11:07:32;4.22;;;3.83;;
20348;SDS011;10332;50.208;18.988;2024-03-23T11:09:59;4.75;;;4.07;;
20348;SDS011;10332;50.208;18.988;2024-03-23T11:12:29;4.80;;;4.10;;
20348;SDS011;10332;50.208;18.988;2024-03-23T11:15:03;4.68;;;4.18;;
20348;SDS011;10332;50.208;18.988;2024-03-23T11:17:39;4.28;;;3.88;;
20348;SDS011;10332;50.208;18.988;2024-03-23T11:20:06;5.00;;;3.40;;
20348;SDS011;10332;50.208;18.988;2024-03-23T11:27:38;4.32;;;3.60;;
20348;SDS011;10332;50.208;18.988;2024-03-23T11:32:51;4.30;;;3.63;;
20348;SDS011;10332;50.208;18.988;2024-03-23T11:38:11;4.53;;;3.50;;
20348;SDS011;10332;50.208;18.988;2024-03-23T11:40:42;4.20;;;3.35;;
20348;SDS011;10332;50.208;18.988;2024-03-23T11:43:11;4.10;;;3.70;;
20348;SDS011;10332;50.208;18.988;2024-03-23T11:48:19;3.30;;;2.83;;
20348;SDS011;10332;50.208;18.988;2024-03-23T11:50:47;2.20;;;2.00;;
20348;SDS011;10332;50.208;18.988;2024-03-23T11:53:21;2.47;;;2.28;;
20348;SDS011;10332;50.208;18.988;2024-03-23T11:55:56;4.15;;;2.00;;
20348;SDS011;10332;50.208;18.988;2024-03-23T11:58:24;2.55;;;2.20;;
20348;SDS011;10332;50.208;18.988;2024-03-23T12:03:24;2.63;;;2.00;;
20348;SDS011;10332;50.208;18.988;2024-03-23T12:05:52;2.08;;;1.90;;
20348;SDS011;10332;50.208;18.988;2024-03-23T12:11:08;2.78;;;2.35;;
20348;SDS011;10332;50.208;18.988;2024-03-23T12:13:40;2.45;;;2.20;;
20348;SDS011;10332;50.208;18.988;2024-03-23T12:16:09;2.30;;;1.80;;
20348;SDS011;10332;50.208;18.988;2024-03-23T12:18:37;2.08;;;1.85;;
20348;SDS011;10332;50.208;18.988;2024-03-23T12:21:05;2.97;;;2.25;;
20348;SDS011;10332;50.208;18.988;2024-03-23T12:23:33;2.95;;;2.65;;
20348;SDS011;10332;50.208;18.988;2024-03-23T12:26:00;2.92;;;1.88;;
20348;SDS011;10332;50.208;18.988;2024-03-23T12:28:27;2.65;;;1.35;;
20348;SDS011;10332;50.208;18.988;2024-03-23T12:30:53;2.28;;;1.60;;
20348;SDS011;10332;50.208;18.988;2024-03-23T12:33:20;1.83;;;1.40;;
20348;SDS011;10332;50.208;18.988;2024-03-23T12:35:47;1.80;;;1.55;;
20348;SDS011;10332;50.208;18.988;2024-03-23T12:38:14;2.45;;;1.65;;
20348;SDS011;10332;50.208;18.988;2024-03-23T12:40:40;1.60;;;1.48;;
20348;SDS011;10332;50.208;18.988;2024-03-23T12:43:07;1.65;;;1.55;;
20348;SDS011;10332;50.208;18.988;2024-03-23T12:45:33;2.83;;;2.20;;
20348;SDS011;10332;50.208;18.988;2024-03-23T12:48:00;2.63;;;2.17;;
20348;SDS011;10332;50.208;18.988;2024-03-23T12:50:26;2.20;;;1.75;;
20348;SDS011;10332;50.208;18.988;2024-03-23T12:52:52;1.95;;;1.10;;
20348;SDS011;10332;50.208;18.988;2024-03-23T12:55:18;1.92;;;1.40;;
20348;SDS011;10332;50.208;18.988;2024-03-23T12:57:46;1.50;;;1.40;;
20348;SDS011;10332;50.208;18.988;2024-03-23T13:00:12;2.08;;;1.70;;
20348;SDS011;10332;50.208;18.988;2024-03-23T13:02:41;2.35;;;1.40;;
20348;SDS011;10332;50.208;18.988;2024-03-23T13:05:07;2.63;;;1.50;;
20348;SDS011;10332;50.208;18.988;2024-03-23T13:07:37;3.28;;;2.00;;
20348;SDS011;10332;50.208;18.988;2024-03-23T13:10:04;2.30;;;1.70;;
20348;SDS011;10332;50.208;18.988;2024-03-23T13:12:31;3.72;;;1.80;;
20348;SDS011;10332;50.208;18.988;2024-03-23T13:14:59;2.90;;;2.20;;
20348;SDS011;10332;50.208;18.988;2024-03-23T13:17:26;5.95;;;4.10;;
20348;SDS011;10332;50.208;18.988;2024-03-23T13:19:53;10.50;;;5.80;;
20348;SDS011;10332;50.208;18.988;2024-03-23T13:22:22;7.82;;;5.53;;
20348;SDS011;10332;50.208;18.988;2024-03-23T13:24:48;5.03;;;3.22;;
20348;SDS011;10332;50.208;18.988;2024-03-23T13:27:15;3.13;;;2.03;;
20348;SDS011;10332;50.208;18.988;2024-03-23T13:29:42;2.67;;;1.70;;
20348;SDS011;10332;50.208;18.988;2024-03-23T13:32:08;2.72;;;1.98;;
20348;SDS011;10332;50.208;18.988;2024-03-23T13:34:35;2.00;;;1.75;;
20348;SDS011;10332;50.208;18.988;2024-03-23T13:37:01;2.90;;;1.83;;
20348;SDS011;10332;50.208;18.988;2024-03-23T13:39:28;2.78;;;1.90;;
20348;SDS011;10332;50.208;18.988;2024-03-23T13:41:56;3.28;;;1.90;;
20348;SDS011;10332;50.208;18.988;2024-03-23T13:44:23;2.58;;;1.83;;
20348;SDS011;10332;50.208;18.988;2024-03-23T13:46:49;5.55;;;2.40;;
20348;SDS011;10332;50.208;18.988;2024-03-23T13:51:56;2.10;;;0.95;;
20348;SDS011;10332;50.208;18.988;2024-03-23T13:54:24;2.13;;;0.90;;
20348;SDS011;10332;50.208;18.988;2024-03-23T13:56:51;4.25;;;1.65;;
20348;SDS011;10332;50.208;18.988;2024-03-23T13:59:18;3.75;;;1.08;;
20348;SDS011;10332;50.208;18.988;2024-03-23T14:01:44;3.83;;;1.77;;
20348;SDS011;10332;50.208;18.988;2024-03-23T14:04:14;3.10;;;1.10;;
20348;SDS011;10332;50.208;18.988;2024-03-23T14:06:42;3.72;;;1.40;;
20348;SDS011;10332;50.208;18.988;2024-03-23T14:09:14;3.47;;;1.17;;
20348;SDS011;10332;50.208;18.988;2024-03-23T14:11:46;2.58;;;0.93;;
20348;SDS011;10332;50.208;18.988;2024-03-23T14:14:13;2.13;;;1.10;;
20348;SDS011;10332;50.208;18.988;2024-03-23T14:16:42;3.45;;;1.20;;
20348;SDS011;10332;50.208;18.988;2024-03-23T14:19:09;4.53;;;1.58;;
20348;SDS011;10332;50.208;18.988;2024-03-23T14:21:35;3.45;;;1.50;;
20348;SDS011;10332;50.208;18.988;2024-03-23T14:24:01;3.78;;;1.30;;
20348;SDS011;10332;50.208;18.988;2024-03-23T14:26:28;2.33;;;1.50;;
20348;SDS011;10332;50.208;18.988;2024-03-23T14:28:55;3.75;;;1.38;;
20348;SDS011;10332;50.208;18.988;2024-03-23T14:31:21;3.92;;;1.40;;
20348;SDS011;10332;50.208;18.988;2024-03-23T14:33:47;2.72;;;1.30;;
20348;SDS011;10332;50.208;18.988;2024-03-23T14:36:14;3.85;;;1.95;;
20348;SDS011;10332;50.208;18.988;2024-03-23T14:38:42;4.70;;;2.33;;
20348;SDS011;10332;50.208;18.988;2024-03-23T14:41:08;4.53;;;2.20;;
20348;SDS011;10332;50.208;18.988;2024-03-23T14:43:34;3.88;;;1.90;;
20348;SDS011;10332;50.208;18.988;2024-03-23T14:48:38;6.50;;;2.63;;
20348;SDS011;10332;50.208;18.988;2024-03-23T14:51:05;3.95;;;1.88;;
20348;SDS011;10332;50.208;18.988;2024-03-23T14:53:34;3.63;;;1.83;;
20348;SDS011;10332;50.208;18.988;2024-03-23T14:56:01;3.67;;;1.60;;
20348;SDS011;10332;50.208;18.988;2024-03-23T14:58:29;4.82;;;2.10;;
20348;SDS011;10332;50.208;18.988;2024-03-23T15:01:00;3.97;;;1.95;;
20348;SDS011;10332;50.208;18.988;2024-03-23T15:03:27;2.28;;;1.55;;
20348;SDS011;10332;50.208;18.988;2024-03-23T15:05:58;3.53;;;1.73;;
20348;SDS011;10332;50.208;18.988;2024-03-23T15:08:28;4.68;;;2.60;;
20348;SDS011;10332;50.208;18.988;2024-03-23T15:10:58;4.65;;;2.45;;
20348;SDS011;10332;50.208;18.988;2024-03-23T15:13:25;6.25;;;3.53;;
20348;SDS011;10332;50.208;18.988;2024-03-23T15:15:51;7.45;;;4.10;;
20348;SDS011;10332;50.208;18.988;2024-03-23T15:18:17;7.25;;;4.97;;
20348;SDS011;10332;50.208;18.988;2024-03-23T15:20:54;8.43;;;4.60;;
20348;SDS011;10332;50.208;18.988;2024-03-23T15:23:22;8.55;;;4.50;;
20348;SDS011;10332;50.208;18.988;2024-03-23T15:25:56;8.38;;;5.25;;
20348;SDS011;10332;50.208;18.988;2024-03-23T15:28:26;6.30;;;4.20;;
20348;SDS011;10332;50.208;18.988;2024-03-23T15:31:12;6.40;;;4.13;;
20348;SDS011;10332;50.208;18.988;2024-03-23T15:33:38;7.10;;;3.88;;
20348;SDS011;10332;50.208;18.988;2024-03-23T15:36:05;6.07;;;3.80;;
20348;SDS011;10332;50.208;18.988;2024-03-23T15:38:32;6.38;;;4.05;;
20348;SDS011;10332;50.208;18.988;2024-03-23T15:40:59;5.22;;;3.85;;